createdAt,value
2022-12-14T00:00:09.460Z,77.49
2022-12-14T00:03:12.253Z,77.30
2022-12-14T00:06:17.932Z,77.36
2022-12-14T00:09:22.036Z,77.09
2022-12-14T00:12:24.641Z,77.76
2022-12-14T00:15:27.622Z,77.43
2022-12-14T00:18:30.307Z,77.46
2022-12-14T00:21:32.952Z,77.78
2022-12-14T00:24:36.894Z,77.54
2022-12-14T00:27:44.510Z,77.43
2022-12-14T00:30:47.134Z,76.53
2022-12-14T00:33:50.553Z,77.08
2022-12-14T00:36:53.172Z,76.76
2022-12-14T00:39:57.099Z,76.77
2022-12-14T00:42:59.685Z,76.14
2022-12-14T00:46:02.392Z,77.31
2022-12-14T00:49:05.101Z,76.95
2022-12-14T00:52:07.684Z,77.21
2022-12-14T00:55:11.862Z,77.40
2022-12-14T00:58:16.462Z,76.14
2022-12-14T01:01:19.282Z,76.25
2022-12-14T01:04:24.460Z,76.92
2022-12-14T01:07:27.083Z,76.85
2022-12-14T01:10:31.054Z,76.22
2022-12-14T01:13:33.928Z,76.82
2022-12-14T01:16:36.540Z,76.33
2022-12-14T01:19:39.177Z,76.08
2022-12-14T01:22:41.756Z,76.72
2022-12-14T01:25:45.726Z,77.09
2022-12-14T01:28:53.375Z,76.90
2022-12-14T01:31:55.956Z,76.89
2022-12-14T01:34:58.558Z,75.84
2022-12-14T01:38:01.136Z,76.20
2022-12-14T01:41:06.202Z,76.07
2022-12-14T01:44:46.012Z,76.87
2022-12-14T01:47:52.767Z,76.54
2022-12-14T01:50:55.409Z,78.59
2022-12-14T01:53:59.401Z,77.32
2022-12-14T01:57:03.548Z,76.01
2022-12-14T02:00:10.270Z,76.45
2022-12-14T02:03:17.193Z,76.19
2022-12-14T02:06:26.440Z,76.56
2022-12-14T02:09:33.021Z,75.62
2022-12-14T02:12:42.685Z,75.00
2022-12-14T02:15:45.883Z,75.24
2022-12-14T02:18:48.488Z,75.18
2022-12-14T02:22:10.774Z,76.54
2022-12-14T02:25:49.479Z,76.03
2022-12-14T02:29:32.538Z,75.92
2022-12-14T02:32:47.219Z,76.75
2022-12-14T02:35:55.354Z,77.40
2022-12-14T02:39:08.491Z,77.04
2022-12-14T02:42:14.782Z,77.04
2022-12-14T02:45:26.794Z,76.75
2022-12-14T02:48:36.866Z,75.56
2022-12-14T02:51:52.109Z,75.77
2022-12-14T02:55:01.898Z,76.56
2022-12-14T02:58:09.910Z,76.26
2022-12-14T03:01:17.940Z,76.71
2022-12-14T03:04:20.698Z,76.21
2022-12-14T03:07:32.410Z,76.72
2022-12-14T03:10:40.504Z,75.97
2022-12-14T03:13:51.066Z,76.39
2022-12-14T03:17:00.404Z,76.15
2022-12-14T03:20:09.763Z,76.36
2022-12-14T03:23:15.867Z,75.33
2022-12-14T03:26:25.943Z,75.02
2022-12-14T03:29:32.233Z,74.71
2022-12-14T03:32:41.960Z,76.21
2022-12-14T03:35:50.608Z,75.94
2022-12-14T03:38:58.054Z,75.91
2022-12-14T03:42:11.098Z,75.02
2022-12-14T03:45:19.201Z,75.90
2022-12-14T03:48:32.530Z,75.24
2022-12-14T03:51:40.859Z,74.95
2022-12-14T03:54:50.629Z,75.44
2022-12-14T03:58:20.414Z,74.95
2022-12-14T04:01:36.042Z,74.22
2022-12-14T04:04:47.624Z,75.51
2022-12-14T04:08:01.036Z,74.96
2022-12-14T04:11:23.585Z,74.50
2022-12-14T04:14:49.839Z,75.27
2022-12-14T04:18:14.185Z,75.52
2022-12-14T04:21:25.147Z,74.81
2022-12-14T04:24:50.921Z,74.31
2022-12-14T04:27:59.610Z,74.34
2022-12-14T04:31:06.213Z,74.97
2022-12-14T04:34:12.904Z,73.83
2022-12-14T04:37:20.550Z,74.69
2022-12-14T04:40:27.034Z,74.49
2022-12-14T04:43:34.748Z,75.18
2022-12-14T04:46:40.921Z,75.26
2022-12-14T04:49:49.227Z,74.16
2022-12-14T04:53:00.029Z,73.85
2022-12-14T04:56:11.725Z,74.55
2022-12-14T04:59:14.588Z,74.43
2022-12-14T05:02:24.500Z,74.38
2022-12-14T05:05:35.433Z,74.25
2022-12-14T05:08:57.672Z,74.04
2022-12-14T05:12:05.945Z,73.99
2022-12-14T05:15:14.179Z,74.74
2022-12-14T05:18:17.353Z,73.55
2022-12-14T05:21:33.847Z,73.82
2022-12-14T05:24:37.917Z,73.84
2022-12-14T05:27:40.513Z,74.16
2022-12-14T05:30:43.264Z,73.93
2022-12-14T05:33:51.539Z,74.29
2022-12-14T05:36:54.455Z,74.69
2022-12-14T05:39:58.565Z,74.40
2022-12-14T05:43:08.194Z,73.91
2022-12-14T05:46:12.251Z,72.97
2022-12-14T05:49:14.894Z,73.55
2022-12-14T05:52:17.971Z,74.02
2022-12-14T05:55:22.276Z,72.94
2022-12-14T05:58:24.889Z,73.99
2022-12-14T06:01:27.569Z,73.18
2022-12-14T06:04:30.385Z,72.34
2022-12-14T06:07:32.997Z,73.16
2022-12-14T06:10:36.953Z,73.50
2022-12-14T06:13:41.143Z,73.95
2022-12-14T06:16:45.428Z,73.69
2022-12-14T06:19:50.164Z,73.82
2022-12-14T06:22:55.289Z,74.45
2022-12-14T06:25:59.254Z,73.27
2022-12-14T06:29:01.836Z,73.92
2022-12-14T06:32:04.601Z,72.28
2022-12-14T06:35:08.681Z,73.92
2022-12-14T06:38:11.484Z,74.66
2022-12-14T06:41:15.638Z,73.82
2022-12-14T06:44:18.417Z,71.77
2022-12-14T06:47:21.002Z,72.55
2022-12-14T06:50:23.573Z,72.60
2022-12-14T06:53:26.462Z,70.95
2022-12-14T06:56:30.968Z,71.85
2022-12-14T06:59:33.569Z,72.09
2022-12-14T07:02:36.356Z,71.23
2022-12-14T07:05:41.959Z,71.75
2022-12-14T07:08:47.379Z,71.49
2022-12-14T07:11:52.220Z,71.29
2022-12-14T07:14:55.087Z,71.06
2022-12-14T07:17:57.676Z,71.26
2022-12-14T07:21:02.311Z,71.53
2022-12-14T07:24:05.359Z,71.48
2022-12-14T07:27:09.309Z,71.58
2022-12-14T07:30:12.636Z,70.87
2022-12-14T07:33:15.238Z,71.46
2022-12-14T07:36:19.135Z,71.42
2022-12-14T07:39:22.789Z,71.59
2022-12-14T07:42:26.883Z,71.16
2022-12-14T07:45:29.523Z,71.36
2022-12-14T07:48:32.575Z,71.30
2022-12-14T07:51:37.653Z,70.66
2022-12-14T07:54:40.232Z,71.24
2022-12-14T07:57:44.368Z,71.15
2022-12-14T08:00:48.217Z,70.21
2022-12-14T08:03:52.781Z,70.46
2022-12-14T08:06:55.360Z,71.28
2022-12-14T08:09:58.009Z,70.73
2022-12-14T08:13:01.955Z,71.28
2022-12-14T08:16:05.700Z,71.67
2022-12-14T08:19:08.311Z,71.21
2022-12-14T08:22:11.440Z,71.27
2022-12-14T08:25:14.035Z,72.19
2022-12-14T08:28:18.008Z,72.25
2022-12-14T08:31:22.796Z,72.16
2022-12-14T08:34:25.393Z,72.09
2022-12-14T08:37:27.980Z,71.67
2022-12-14T08:40:32.278Z,72.34
2022-12-14T08:43:37.365Z,71.95
2022-12-14T08:46:40.197Z,73.15
2022-12-14T08:49:42.809Z,72.78
2022-12-14T08:52:48.217Z,73.00
2022-12-14T08:55:50.810Z,72.45
2022-12-14T08:58:54.794Z,72.67
2022-12-14T09:01:57.600Z,73.01
2022-12-14T09:05:00.294Z,73.65
2022-12-14T09:08:02.880Z,73.79
2022-12-14T09:11:07.076Z,74.57
2022-12-14T09:14:11.053Z,74.73
2022-12-14T09:17:14.168Z,73.47
2022-12-14T09:20:17.075Z,73.95
2022-12-14T09:23:19.656Z,74.98
2022-12-14T09:26:24.510Z,75.03
2022-12-14T09:29:28.862Z,73.72
2022-12-14T09:32:31.595Z,75.17
2022-12-14T09:35:34.174Z,73.08
2022-12-14T09:38:39.197Z,73.55
2022-12-14T09:41:57.696Z,73.17
2022-12-14T09:45:12.508Z,72.97
2022-12-14T09:48:19.536Z,73.91
2022-12-14T09:51:23.853Z,73.78
2022-12-14T09:54:29.363Z,73.70
2022-12-14T09:57:39.010Z,72.03
2022-12-14T10:00:53.161Z,72.91
2022-12-14T10:04:06.008Z,72.73
2022-12-14T10:07:17.715Z,72.51
2022-12-14T10:10:26.580Z,72.06
2022-12-14T10:13:38.438Z,73.36
2022-12-14T10:16:52.628Z,70.72
2022-12-14T10:19:57.420Z,71.07
2022-12-14T10:23:02.348Z,71.75
2022-12-14T10:26:08.992Z,73.45
2022-12-14T10:29:17.994Z,72.73
2022-12-14T10:32:28.312Z,73.08
2022-12-14T10:35:36.857Z,73.15
2022-12-14T10:38:46.021Z,70.53
2022-12-14T10:41:59.701Z,70.53
2022-12-14T10:45:39.875Z,68.46
2022-12-14T10:48:45.107Z,67.65
2022-12-14T10:51:51.995Z,66.16
2022-12-14T10:54:59.618Z,65.52
2022-12-14T10:58:02.200Z,64.11
2022-12-14T11:01:04.992Z,64.13
2022-12-14T11:04:19.259Z,60.36
2022-12-14T11:07:25.651Z,56.60
2022-12-14T11:10:29.391Z,54.80
2022-12-14T11:13:32.031Z,53.79
2022-12-14T11:16:37.463Z,54.74
2022-12-14T11:19:41.663Z,55.00
2022-12-14T11:22:45.424Z,55.68
2022-12-14T11:25:51.395Z,57.82
2022-12-14T11:28:55.804Z,62.47
2022-12-14T11:32:00.224Z,65.22
2022-12-14T11:35:04.359Z,65.46
2022-12-14T11:38:07.283Z,65.34
2022-12-14T11:41:21.486Z,66.62
2022-12-14T11:44:26.248Z,66.94
2022-12-14T11:47:29.121Z,68.27
2022-12-14T11:50:33.099Z,66.54
2022-12-14T11:53:35.696Z,66.17
2022-12-14T11:56:38.351Z,66.41
2022-12-14T11:59:48.550Z,65.88
2022-12-14T12:03:00.720Z,65.90
2022-12-14T12:06:07.895Z,64.72
2022-12-14T12:09:23.424Z,66.41
2022-12-14T12:12:26.055Z,64.50
2022-12-14T12:15:36.828Z,66.21
2022-12-14T12:18:46.615Z,67.49
2022-12-14T12:21:52.173Z,66.32
2022-12-14T12:25:33.667Z,66.67
2022-12-14T12:28:26.930Z,66.76
2022-12-14T12:31:35.506Z,67.76
2022-12-14T12:34:44.978Z,65.02
2022-12-14T12:37:52.653Z,65.41
2022-12-14T12:41:04.192Z,67.37
2022-12-14T12:44:23.980Z,65.73
2022-12-14T12:47:43.179Z,62.86
2022-12-14T12:50:52.519Z,59.29
2022-12-14T12:54:00.303Z,58.72
2022-12-14T12:57:05.933Z,57.80
2022-12-14T13:00:15.512Z,55.59
2022-12-14T13:03:23.647Z,56.83
2022-12-14T13:06:31.618Z,59.60
2022-12-14T13:09:42.374Z,61.39
2022-12-14T13:12:48.964Z,61.78
2022-12-14T13:15:55.136Z,61.87
2022-12-14T13:19:32.093Z,63.98
2022-12-14T13:22:29.469Z,64.68
2022-12-14T13:25:48.968Z,64.19
2022-12-14T13:29:02.661Z,63.11
2022-12-14T13:32:14.523Z,65.95
2022-12-14T13:35:34.898Z,64.73
2022-12-14T13:39:02.378Z,64.83
2022-12-14T13:42:09.196Z,66.94
2022-12-14T13:45:18.974Z,66.69
2022-12-14T13:48:24.945Z,67.02
2022-12-14T13:51:30.502Z,67.87
2022-12-14T13:54:36.039Z,68.65
2022-12-14T13:57:39.977Z,67.09
2022-12-14T14:00:57.868Z,68.55
2022-12-14T14:04:22.188Z,68.83
2022-12-14T14:07:50.432Z,69.28
2022-12-14T14:11:02.459Z,69.19
2022-12-14T14:14:47.917Z,69.51
2022-12-14T14:17:53.849Z,69.64
2022-12-14T14:21:31.343Z,70.19
2022-12-14T14:24:56.754Z,68.86
2022-12-14T14:28:01.579Z,69.18
2022-12-14T14:31:05.947Z,69.86
2022-12-14T14:34:21.913Z,69.73
2022-12-14T14:37:36.184Z,70.53
2022-12-14T14:41:13.939Z,70.73
2022-12-14T14:44:05.790Z,70.91
2022-12-14T14:47:24.170Z,70.81
2022-12-14T14:50:32.654Z,70.70
2022-12-14T14:53:36.301Z,71.43
2022-12-14T14:56:39.993Z,71.95
2022-12-14T14:59:51.176Z,72.02
2022-12-14T15:02:55.826Z,72.71
2022-12-14T15:06:00.608Z,72.98
2022-12-14T15:09:08.075Z,72.60
2022-12-14T15:12:25.707Z,72.84
2022-12-14T15:15:35.740Z,71.94
2022-12-14T15:18:39.681Z,72.14
2022-12-14T15:21:42.751Z,72.25
2022-12-14T15:24:47.494Z,72.08
2022-12-14T15:27:50.897Z,72.87
2022-12-14T15:30:54.958Z,74.21
2022-12-14T15:34:00.150Z,73.94
2022-12-14T15:37:03.145Z,74.45
2022-12-14T15:40:08.401Z,73.65
2022-12-14T15:43:19.049Z,73.11
2022-12-14T15:46:26.544Z,72.86
2022-12-14T15:49:30.569Z,73.26
2022-12-14T15:52:33.987Z,73.73
2022-12-14T15:55:38.729Z,73.68
2022-12-14T15:58:42.001Z,73.40
2022-12-14T16:01:53.709Z,72.65
2022-12-14T16:05:01.580Z,73.44
2022-12-14T16:08:04.512Z,73.43
2022-12-14T16:11:13.866Z,72.88
2022-12-14T16:14:21.352Z,73.73
2022-12-14T16:17:27.359Z,74.32
2022-12-14T16:20:32.815Z,74.80
2022-12-14T16:23:41.980Z,74.40
2022-12-14T16:26:57.352Z,74.26
2022-12-14T16:30:09.144Z,73.82
2022-12-14T16:33:18.886Z,74.24
2022-12-14T16:36:26.293Z,73.84
2022-12-14T16:39:35.208Z,73.24
2022-12-14T16:42:37.813Z,74.03
2022-12-14T16:46:14.080Z,74.56
2022-12-14T16:49:22.183Z,73.73
2022-12-14T16:52:28.783Z,74.73
2022-12-14T16:55:31.428Z,75.04
2022-12-14T16:58:34.220Z,74.79
2022-12-14T17:01:42.662Z,74.63
2022-12-14T17:04:45.406Z,74.80
2022-12-14T17:07:50.083Z,73.59
2022-12-14T17:10:52.814Z,73.82
2022-12-14T17:13:55.723Z,73.04
2022-12-14T17:17:01.842Z,73.74
2022-12-14T17:20:11.965Z,73.74
2022-12-14T17:23:18.878Z,74.63
2022-12-14T17:26:23.752Z,73.76
2022-12-14T17:29:28.359Z,73.91
2022-12-14T17:32:31.519Z,75.11
2022-12-14T17:35:34.134Z,74.23
2022-12-14T17:38:38.128Z,74.55
2022-12-14T17:41:43.279Z,73.71
2022-12-14T17:44:52.076Z,73.28
2022-12-14T17:47:55.421Z,74.12
2022-12-14T17:50:58.038Z,73.71
2022-12-14T17:54:01.993Z,73.30
2022-12-14T17:57:07.319Z,74.46
2022-12-14T18:00:32.920Z,75.12
2022-12-14T18:03:37.033Z,74.57
2022-12-14T18:06:39.865Z,73.80
2022-12-14T18:09:44.109Z,74.93
2022-12-14T18:12:46.752Z,73.81
2022-12-14T18:15:51.550Z,75.45
2022-12-14T18:18:55.189Z,75.07
2022-12-14T18:21:58.003Z,75.27
2022-12-14T18:25:02.101Z,75.77
2022-12-14T18:28:06.849Z,75.19
2022-12-14T18:31:20.235Z,75.86
2022-12-14T18:34:22.846Z,74.73
2022-12-14T18:37:28.389Z,76.05
2022-12-14T18:40:36.675Z,75.81
2022-12-14T18:43:43.638Z,74.93
2022-12-14T18:46:49.309Z,76.23
2022-12-14T18:49:52.398Z,76.93
2022-12-14T18:52:56.285Z,77.07
2022-12-14T18:56:09.428Z,75.85
2022-12-14T18:59:12.023Z,75.72
2022-12-14T19:02:15.639Z,75.97
2022-12-14T19:05:25.595Z,75.65
2022-12-14T19:08:28.623Z,75.00
2022-12-14T19:11:35.074Z,75.90
2022-12-14T19:14:37.664Z,74.73
2022-12-14T19:17:40.267Z,75.34
2022-12-14T19:20:42.833Z,75.22
2022-12-14T19:23:45.741Z,75.54
2022-12-14T19:26:49.962Z,76.17
2022-12-14T19:29:52.554Z,75.46
2022-12-14T19:32:57.072Z,75.49
2022-12-14T19:36:00.161Z,76.11
2022-12-14T19:39:02.738Z,76.02
2022-12-14T19:42:06.766Z,75.38
2022-12-14T19:45:11.101Z,76.11
2022-12-14T19:48:13.850Z,76.56
2022-12-14T19:51:18.285Z,75.22
2022-12-14T19:54:20.935Z,75.87
2022-12-14T19:57:24.881Z,75.80
2022-12-14T20:00:27.492Z,74.66
2022-12-14T20:03:30.748Z,74.87
2022-12-14T20:06:34.497Z,75.04
2022-12-14T20:09:37.239Z,74.86
2022-12-14T20:12:41.172Z,74.89
2022-12-14T20:15:48.998Z,75.45
2022-12-14T20:18:51.890Z,75.07
2022-12-14T20:21:54.476Z,75.95
2022-12-14T20:24:57.065Z,75.19
2022-12-14T20:28:01.043Z,75.45
2022-12-14T20:31:06.131Z,74.71
2022-12-14T20:34:08.970Z,75.32
2022-12-14T20:37:11.623Z,75.27
2022-12-14T20:40:14.763Z,75.14
2022-12-14T20:43:18.734Z,76.03
2022-12-14T20:46:27.320Z,75.56
2022-12-14T20:49:32.749Z,76.03
2022-12-14T20:52:35.333Z,75.51
2022-12-14T20:55:38.054Z,76.00
2022-12-14T20:58:46.923Z,77.15
2022-12-14T21:01:55.489Z,77.30
2022-12-14T21:04:59.042Z,77.52
2022-12-14T21:08:01.638Z,77.06
2022-12-14T21:11:24.877Z,77.31
2022-12-14T21:14:30.561Z,76.08
2022-12-14T21:17:33.622Z,75.81
2022-12-14T21:20:37.414Z,74.71
2022-12-14T21:23:41.925Z,75.50
2022-12-14T21:26:44.776Z,75.24
2022-12-14T21:29:54.005Z,74.99
2022-12-14T21:32:56.621Z,75.21
2022-12-14T21:35:59.249Z,75.16
2022-12-14T21:39:03.292Z,75.57
2022-12-14T21:42:15.315Z,75.56
2022-12-14T21:45:19.253Z,76.47
2022-12-14T21:48:21.858Z,75.34
2022-12-14T21:51:24.428Z,75.26
2022-12-14T21:54:27.235Z,76.43
2022-12-14T21:57:50.386Z,74.84
2022-12-14T22:00:54.750Z,74.31
2022-12-14T22:03:57.402Z,75.11
2022-12-14T22:07:01.014Z,74.91
2022-12-14T22:10:03.996Z,75.61
2022-12-14T22:13:06.563Z,75.21
2022-12-14T22:16:11.458Z,75.31
2022-12-14T22:19:16.012Z,75.80
2022-12-14T22:22:18.895Z,75.89
2022-12-14T22:25:21.472Z,76.29
2022-12-14T22:28:24.577Z,76.76
2022-12-14T22:31:28.870Z,76.87
2022-12-14T22:34:31.482Z,74.75
2022-12-14T22:37:34.082Z,75.43
2022-12-14T22:40:36.807Z,75.20
2022-12-14T22:43:39.832Z,76.13
2022-12-14T22:46:44.082Z,75.34
2022-12-14T22:49:47.039Z,75.02
2022-12-14T22:52:49.919Z,74.34
2022-12-14T22:55:52.983Z,75.57
2022-12-14T22:59:04.418Z,75.91
2022-12-14T23:02:08.705Z,77.33
2022-12-14T23:05:12.969Z,76.51
2022-12-14T23:08:16.010Z,75.09
2022-12-14T23:11:36.263Z,74.67
2022-12-14T23:14:56.538Z,73.44
2022-12-14T23:18:21.074Z,74.87
2022-12-14T23:21:41.376Z,74.67
2022-12-14T23:25:01.600Z,73.20
2022-12-14T23:28:22.357Z,73.12
2022-12-14T23:31:42.725Z,72.93
2022-12-14T23:35:04.498Z,73.07
2022-12-14T23:38:25.326Z,73.79
2022-12-14T23:41:45.532Z,73.60
2022-12-14T23:45:05.769Z,72.68
2022-12-14T23:48:26.039Z,73.25
2022-12-14T23:51:47.625Z,72.92
2022-12-14T23:55:07.841Z,74.09
2022-12-14T23:58:28.104Z,73.54
